Terminal Aerodrome Forecast
Issued by NWS Austin/San Antonio, TX

Home | Current Version | Previous Version | Text Only | Print | Product List | Glossary On
Versions: 1 2 3 4 5 6 7 8 9 10 11 12 13 14
000
FTUS44 KEWX 271400 AAA
TAFAUS
TAF AMD
KAUS 271436Z 2715/2818 36012G22KT 6SM -RA BR OVC012
      TEMPO 2715/2717 3SM RA OVC009
     FM272000 36014G24KT P6SM SCT015 OVC025
     FM280300 36016KT P6SM OVC035=

USA.gov is the U.S. government's official web portal to all federal, state and local government web resources and services.